Time;durP1;ratioP1;P1;durP2;ratioP2;P2;SDS_P1;SDS_P2;PMS_P1;PMS_P2;Temp;Humidity;BMP_temperature;BMP_pressure;BME280_temperature;BME280_humidity;BME280_pressure;Samples;Min_cycle;Max_cycle;Signal;HPM_P1;HPM_P2
2021/01/29 00:01:21;;;;;;;;;;;77.20;2022.40;;;;;;5097169;28;19915;-65
2021/01/29 00:03:47;;;;;;;;;;;77.20;2022.40;;;;;;5096929;28;19912;-66
2021/01/29 00:06:13;;;;;;;;;;;77.30;1996.80;;;;;;5096335;28;20347;-65
2021/01/29 00:08:38;;;;;;;;;;;77.30;1945.60;;;;;;5096645;28;19920;-66
2021/01/29 00:11:04;;;;;;;;;;;77.30;1996.80;;;;;;5096938;28;20000;-66
2021/01/29 00:13:30;;;;;;;;;;;77.30;2073.60;;;;;;5096239;28;19912;-66
2021/01/29 00:15:56;;;;;;;;;;;77.30;2099.20;;;;;;5096231;28;19904;-65
2021/01/29 00:18:22;;;;;;;;;;;77.20;2124.80;;;;;;5096506;28;19982;-66
2021/01/29 00:20:48;;;;;;;;;;;77.20;2073.60;;;;;;5096500;28;19908;-66
2021/01/29 00:23:15;;;;;;;;;;;77.30;2099.20;;;;;;5096093;28;19911;-65
2021/01/29 00:25:43;;;;;;;;;;;77.30;2124.80;;;;;;5085490;28;19904;-67
2021/01/29 00:28:09;;;;;;;;;;;77.30;2124.80;;;;;;5085614;28;19923;-67
2021/01/29 00:30:35;;;;;;;;;;;77.20;2124.80;;;;;;5086027;28;19912;-67
2021/01/29 00:33:02;;;;;;;;;;;77.30;2073.60;;;;;;5086516;28;19947;-66
2021/01/29 00:35:30;;;;;;;;;;;77.30;1971.20;;;;;;5085189;28;20290;-66
2021/01/29 00:37:56;;;;;;;;;;;77.40;1971.20;;;;;;5086290;28;19908;-66
2021/01/29 00:40:22;;;;;;;;;;;77.50;1945.60;;;;;;5086831;28;20210;-66
2021/01/29 00:42:48;;;;;;;;;;;77.40;1996.80;;;;;;5093336;28;19965;-66
2021/01/29 00:45:15;;;;;;;;;;;77.50;2048.00;;;;;;5096422;28;20209;-66
2021/01/29 00:47:40;;;;;;;;;;;77.40;2073.60;;;;;;5086895;28;20234;-66
2021/01/29 00:50:07;;;;;;;;;;;77.40;2022.40;;;;;;5085254;28;19908;-67
2021/01/29 00:52:33;;;;;;;;;;;77.50;1971.20;;;;;;5084810;28;20217;-67
2021/01/29 00:54:59;;;;;;;;;;;77.40;1971.20;;;;;;5085876;28;19915;-66
2021/01/29 00:57:25;;;;;;;;;;;77.30;1996.80;;;;;;5086562;28;19920;-66
2021/01/29 00:59:50;;;;;;;;;;;77.30;2022.40;;;;;;5084209;28;19985;-64
2021/01/29 01:02:16;;;;;;;;;;;77.30;2099.20;;;;;;5085979;28;19986;-64
2021/01/29 01:04:41;;;;;;;;;;;77.30;2150.40;;;;;;5085866;28;20195;-64
2021/01/29 01:07:08;;;;;;;;;;;77.30;2176.00;;;;;;5084370;28;20269;-64
2021/01/29 01:09:34;;;;;;;;;;;77.30;2227.20;;;;;;5084535;28;19909;-64
2021/01/29 01:12:00;;;;;;;;;;;77.20;2227.20;;;;;;5085897;28;20321;-63
2021/01/29 01:14:28;;;;;;;;;;;77.30;2227.20;;;;;;5086007;28;20233;-64
2021/01/29 01:16:53;;;;;;;;;;;77.20;2227.20;;;;;;5084734;28;19970;-63
2021/01/29 01:19:19;;;;;;;;;;;77.30;2227.20;;;;;;5085099;28;19904;-66
2021/01/29 01:21:45;;;;;;;;;;;77.20;2227.20;;;;;;5075967;28;19912;-65
2021/01/29 01:24:10;;;;;;;;;;;77.10;2227.20;;;;;;5075493;28;19912;-65
2021/01/29 01:26:36;;;;;;;;;;;77.00;2227.20;;;;;;5076070;28;19914;-65
2021/01/29 01:29:01;;;;;;;;;;;77.10;2227.20;;;;;;5075555;28;20347;-65
2021/01/29 01:31:27;;;;;;;;;;;77.10;2227.20;;;;;;5075609;28;20195;-66
2021/01/29 01:33:53;;;;;;;;;;;77.00;2227.20;;;;;;5075705;28;20233;-65
2021/01/29 01:36:18;;;;;;;;;;;76.90;2227.20;;;;;;5075803;28;19912;-66
2021/01/29 01:38:44;;;;;;;;;;;77.00;2227.20;;;;;;5075701;28;19979;-66
2021/01/29 01:41:10;;;;;;;;;;;77.00;2227.20;;;;;;5075733;28;20281;-66
2021/01/29 01:43:37;;;;;;;;;;;77.00;2227.20;;;;;;5075053;28;19915;-65
2021/01/29 01:46:06;;;;;;;;;;;77.10;2227.20;;;;;;5076104;28;19912;-66
2021/01/29 01:48:37;;;;;;;;;;;77.10;2227.20;;;;;;5081229;28;19962;-66
2021/01/29 01:51:03;;;;;;;;;;;77.20;2227.20;;;;;;5095540;28;20356;-65
2021/01/29 01:53:31;;;;;;;;;;;77.10;2227.20;;;;;;5095376;28;20285;-66
2021/01/29 01:56:17;;;;;;;;;;;77.10;2227.20;;;;;;5095809;28;19904;-65
2021/01/29 01:58:45;;;;;;;;;;;77.00;2227.20;;;;;;5095009;28;19957;-66
2021/01/29 02:01:10;;;;;;;;;;;77.00;2227.20;;;;;;5095960;28;19907;-66
2021/01/29 02:03:36;;;;;;;;;;;77.00;2227.20;;;;;;5095418;28;20002;-66
2021/01/29 02:06:03;;;;;;;;;;;76.90;2227.20;;;;;;5095367;28;19923;-65
2021/01/29 02:08:30;;;;;;;;;;;76.90;2227.20;;;;;;5095096;28;20260;-66
2021/01/29 02:10:57;;;;;;;;;;;76.90;2227.20;;;;;;5095787;28;20343;-65
2021/01/29 02:13:22;;;;;;;;;;;76.80;2227.20;;;;;;5095604;28;19912;-65
2021/01/29 02:15:50;;;;;;;;;;;76.80;2227.20;;;;;;5095651;28;20614;-66
2021/01/29 02:18:27;;;;;;;;;;;76.90;2227.20;;;;;;5094871;28;19908;-66
2021/01/29 02:21:18;;;;;;;;;;;77.00;2227.20;;;;;;5097514;28;20385;-66
2021/01/29 02:23:59;;;;;;;;;;;77.10;2227.20;;;;;;5099223;28;20294;-66
2021/01/29 02:26:50;;;;;;;;;;;76.90;2227.20;;;;;;5099422;28;19998;-66
2021/01/29 02:29:45;;;;;;;;;;;76.90;2227.20;;;;;;5099179;28;20290;-66
2021/01/29 02:32:11;;;;;;;;;;;76.90;2227.20;;;;;;5096427;28;19908;-65
2021/01/29 02:34:45;;;;;;;;;;;77.00;2227.20;;;;;;5096519;28;19916;-66
2021/01/29 02:37:29;;;;;;;;;;;77.00;2227.20;;;;;;5096913;28;19907;-66
2021/01/29 02:39:54;;;;;;;;;;;77.10;2227.20;;;;;;5095881;28;20327;-66
2021/01/29 02:42:20;;;;;;;;;;;77.10;2227.20;;;;;;5096345;28;20002;-65
2021/01/29 02:45:04;;;;;;;;;;;77.10;2227.20;;;;;;5096485;28;19908;-66
2021/01/29 02:47:32;;;;;;;;;;;77.20;2227.20;;;;;;5096393;28;19956;-66
2021/01/29 02:49:57;;;;;;;;;;;77.30;2227.20;;;;;;5096331;28;19953;-66
2021/01/29 02:52:49;;;;;;;;;;;77.20;2227.20;;;;;;5096571;28;20010;-66
2021/01/29 02:55:27;;;;;;;;;;;77.20;2227.20;;;;;;5055203;28;19920;-66
2021/01/29 02:58:06;;;;;;;;;;;77.30;2227.20;;;;;;5056274;28;20215;-66
2021/01/29 03:00:35;;;;;;;;;;;77.20;2227.20;;;;;;5055809;28;19904;-66
2021/01/29 03:03:03;;;;;;;;;;;77.30;2227.20;;;;;;5055798;28;20435;-66
2021/01/29 03:05:36;;;;;;;;;;;77.30;2227.20;;;;;;5055525;28;19944;-66
2021/01/29 03:08:17;;;;;;;;;;;77.30;2227.20;;;;;;5060788;28;19915;-65
2021/01/29 03:10:47;;;;;;;;;;;77.30;2227.20;;;;;;5075740;28;19904;-66
2021/01/29 03:13:22;;;;;;;;;;;77.20;2227.20;;;;;;5075575;28;20708;-66
2021/01/29 03:15:56;;;;;;;;;;;77.20;2227.20;;;;;;5075132;28;19908;-66
2021/01/29 03:18:48;;;;;;;;;;;77.30;2227.20;;;;;;5075682;28;19912;-66
2021/01/29 03:21:15;;;;;;;;;;;77.30;2227.20;;;;;;5072996;28;19908;-66
2021/01/29 03:23:57;;;;;;;;;;;77.30;2227.20;;;;;;5075760;28;19911;-66
2021/01/29 03:26:36;;;;;;;;;;;77.40;2227.20;;;;;;5075631;28;19915;-66
2021/01/29 03:29:05;;;;;;;;;;;77.40;2227.20;;;;;;5075234;28;20328;-66
2021/01/29 03:31:32;;;;;;;;;;;77.40;2227.20;;;;;;5080283;28;20309;-65
2021/01/29 03:34:09;;;;;;;;;;;77.30;2227.20;;;;;;5097401;28;20354;-66
2021/01/29 03:36:39;;;;;;;;;;;77.40;2227.20;;;;;;5097894;28;19916;-66
2021/01/29 03:39:07;;;;;;;;;;;77.40;2227.20;;;;;;5098274;28;19908;-66
2021/01/29 03:41:38;;;;;;;;;;;77.30;2227.20;;;;;;5097476;28;20228;-67
2021/01/29 03:44:10;;;;;;;;;;;77.30;2227.20;;;;;;5097771;28;20286;-66
2021/01/29 03:46:40;;;;;;;;;;;77.50;2227.20;;;;;;5097902;28;19908;-65
2021/01/29 03:49:06;;;;;;;;;;;77.50;2227.20;;;;;;5097832;28;19957;-66
2021/01/29 03:51:51;;;;;;;;;;;77.60;2227.20;;;;;;5098293;28;19911;-66
2021/01/29 03:54:22;;;;;;;;;;;77.70;2227.20;;;;;;5097489;28;19916;-66
2021/01/29 03:56:55;;;;;;;;;;;102.40;2227.20;;;;;;5097167;28;19959;-65
2021/01/29 03:59:29;;;;;;;;;;;102.40;2227.20;;;;;;5100200;28;19927;-66
2021/01/29 04:02:34;;;;;;;;;;;102.40;2227.20;;;;;;5099839;28;19998;-66
2021/01/29 04:05:05;;;;;;;;;;;77.70;2227.20;;;;;;5098542;28;19933;-66
2021/01/29 04:07:50;;;;;;;;;;;77.70;2227.20;;;;;;5099487;28;20278;-66
2021/01/29 04:10:18;;;;;;;;;;;77.70;2227.20;;;;;;5099391;28;19904;-66
2021/01/29 04:12:47;;;;;;;;;;;77.70;2227.20;;;;;;5099638;28;19990;-67
2021/01/29 04:15:12;;;;;;;;;;;77.60;2227.20;;;;;;5098434;28;19986;-66
2021/01/29 04:17:58;;;;;;;;;;;77.60;2227.20;;;;;;5081704;28;19912;-66
2021/01/29 04:20:27;;;;;;;;;;;77.50;2227.20;;;;;;5078486;28;20298;-66
2021/01/29 04:22:55;;;;;;;;;;;77.50;2227.20;;;;;;5079224;28;19908;-65
2021/01/29 04:25:33;;;;;;;;;;;77.50;2227.20;;;;;;5078518;28;19911;-66
2021/01/29 04:28:01;;;;;;;;;;;77.50;2227.20;;;;;;5078809;28;19994;-66
2021/01/29 04:30:29;;;;;;;;;;;77.50;2227.20;;;;;;5081607;28;19910;-66
2021/01/29 04:33:08;;;;;;;;;;;77.50;2227.20;;;;;;5081385;28;19908;-66
2021/01/29 04:35:35;;;;;;;;;;;77.50;2227.20;;;;;;5081413;28;19912;-66
2021/01/29 04:38:10;;;;;;;;;;;77.50;2227.20;;;;;;5099148;28;19915;-66
2021/01/29 04:40:53;;;;;;;;;;;77.50;2227.20;;;;;;5094751;28;19957;-66
2021/01/29 04:43:33;;;;;;;;;;;77.50;2227.20;;;;;;5078703;28;19918;-66
2021/01/29 04:46:05;;;;;;;;;;;77.40;2227.20;;;;;;5088104;28;20008;-66
2021/01/29 04:48:36;;;;;;;;;;;77.50;2227.20;;;;;;5086900;28;19911;-66
2021/01/29 04:51:07;;;;;;;;;;;77.60;2227.20;;;;;;5086117;28;19912;-66
2021/01/29 04:53:36;;;;;;;;;;;77.50;2227.20;;;;;;5087992;28;19958;-66
2021/01/29 04:56:04;;;;;;;;;;;77.60;2227.20;;;;;;5090492;28;19969;-67
2021/01/29 04:58:33;;;;;;;;;;;77.60;2227.20;;;;;;5089651;28;19994;-67
2021/01/29 05:00:59;;;;;;;;;;;77.60;2227.20;;;;;;5098992;28;20204;-66
2021/01/29 05:03:34;;;;;;;;;;;77.60;2227.20;;;;;;5098603;28;19961;-66
2021/01/29 05:06:12;;;;;;;;;;;77.70;2227.20;;;;;;5098703;28;19916;-66
2021/01/29 05:09:07;;;;;;;;;;;77.60;2227.20;;;;;;5095143;28;19908;-67
2021/01/29 05:11:36;;;;;;;;;;;77.60;2227.20;;;;;;5087380;28;19918;-66
2021/01/29 05:14:20;;;;;;;;;;;77.60;2227.20;;;;;;5086746;28;20325;-66
2021/01/29 05:16:52;;;;;;;;;;;77.60;2227.20;;;;;;5094593;28;19932;-66
2021/01/29 05:19:36;;;;;;;;;;;77.70;2227.20;;;;;;5098802;28;19904;-66
2021/01/29 05:22:11;;;;;;;;;;;77.60;2227.20;;;;;;5098124;28;20201;-67
2021/01/29 05:25:02;;;;;;;;;;;77.60;2227.20;;;;;;5098435;28;19949;-66
2021/01/29 05:27:48;;;;;;;;;;;77.70;2227.20;;;;;;5097853;28;19911;-66
2021/01/29 05:30:32;;;;;;;;;;;102.40;2227.20;;;;;;5098310;28;20201;-66
2021/01/29 05:33:01;;;;;;;;;;;102.40;2227.20;;;;;;5098014;28;20015;-66
2021/01/29 05:35:26;;;;;;;;;;;102.40;2227.20;;;;;;5097822;28;19916;-66
2021/01/29 05:38:09;;;;;;;;;;;102.40;2227.20;;;;;;5097901;28;20289;-65
2021/01/29 05:40:49;;;;;;;;;;;102.40;2227.20;;;;;;5097977;28;20290;-66
2021/01/29 05:43:14;;;;;;;;;;;102.40;2227.20;;;;;;5097646;28;20309;-67
2021/01/29 05:45:55;;;;;;;;;;;102.40;2227.20;;;;;;5097849;28;19911;-66
2021/01/29 05:48:39;;;;;;;;;;;102.50;2227.20;;;;;;5097045;28;20000;-66
2021/01/29 05:51:08;;;;;;;;;;;102.50;2227.20;;;;;;5098073;28;19992;-66
2021/01/29 05:53:54;;;;;;;;;;;102.60;2227.20;;;;;;5085421;28;19912;-67
2021/01/29 05:56:37;;;;;;;;;;;102.50;2227.20;;;;;;5061563;28;19916;-66
2021/01/29 05:59:15;;;;;;;;;;;102.50;2227.20;;;;;;5080443;28;19912;-66
2021/01/29 06:01:47;;;;;;;;;;;102.40;2227.20;;;;;;5080118;28;19905;-67
2021/01/29 06:04:28;;;;;;;;;;;77.70;2227.20;;;;;;5081077;28;19904;-66
2021/01/29 06:07:07;;;;;;;;;;;102.40;2227.20;;;;;;5080773;28;19944;-66
2021/01/29 06:09:45;;;;;;;;;;;102.40;2227.20;;;;;;5080127;28;20222;-66
2021/01/29 06:12:13;;;;;;;;;;;102.40;2227.20;;;;;;5080627;28;20094;-66
2021/01/29 06:15:14;;;;;;;;;;;102.50;2227.20;;;;;;5081323;28;19920;-66
2021/01/29 06:17:49;;;;;;;;;;;102.60;2227.20;;;;;;5053656;28;20313;-65
2021/01/29 06:20:33;;;;;;;;;;;102.70;2227.20;;;;;;5081288;28;19954;-67
2021/01/29 06:23:05;;;;;;;;;;;102.80;2227.20;;;;;;5080964;28;20349;-66
2021/01/29 06:25:39;;;;;;;;;;;102.80;2227.20;;;;;;5081458;28;19999;-66
2021/01/29 06:28:11;;;;;;;;;;;102.90;2227.20;;;;;;5080534;28;19947;-66
2021/01/29 06:31:06;;;;;;;;;;;103.10;2227.20;;;;;;5081084;28;19905;-66
2021/01/29 06:33:34;;;;;;;;;;;103.30;2227.20;;;;;;5071499;28;19913;-66
2021/01/29 06:36:12;;;;;;;;;;;103.30;2227.20;;;;;;5081251;28;19905;-66
2021/01/29 06:38:38;;;;;;;;;;;103.20;2227.20;;;;;;5080624;28;19950;-66
2021/01/29 06:41:03;;;;;;;;;;;103.10;2227.20;;;;;;5080887;28;20253;-67
2021/01/29 06:43:29;;;;;;;;;;;103.10;2227.20;;;;;;5080229;28;19904;-67
2021/01/29 06:46:13;;;;;;;;;;;103.10;2227.20;;;;;;5080916;28;19951;-66
2021/01/29 06:49:01;;;;;;;;;;;103.20;2227.20;;;;;;5080439;28;19905;-67
2021/01/29 06:51:45;;;;;;;;;;;128.00;2252.80;;;;;;5080324;28;19948;-67
2021/01/29 06:54:35;;;;;;;;;;;128.10;2252.80;;;;;;5080535;28;19969;-66
2021/01/29 06:57:09;;;;;;;;;;;128.10;2252.80;;;;;;5080917;28;19904;-66
2021/01/29 06:59:53;;;;;;;;;;;128.30;2252.80;;;;;;5080282;28;20302;-66
2021/01/29 07:02:34;;;;;;;;;;;128.40;2252.80;;;;;;5080793;28;19959;-66
2021/01/29 07:05:12;;;;;;;;;;;128.60;2252.80;;;;;;5079872;28;20291;-66
2021/01/29 07:07:48;;;;;;;;;;;128.70;2252.80;;;;;;5079784;28;20298;-66
2021/01/29 07:10:29;;;;;;;;;;;128.90;2252.80;;;;;;5080259;28;19951;-66
2021/01/29 07:12:57;;;;;;;;;;;153.60;2252.80;;;;;;5080082;28;20191;-66
2021/01/29 07:15:31;;;;;;;;;;;153.80;2252.80;;;;;;5080138;28;19919;-66
2021/01/29 07:18:11;;;;;;;;;;;153.80;2252.80;;;;;;5080250;28;20006;-67
2021/01/29 07:20:44;;;;;;;;;;;153.90;2252.80;;;;;;5079597;28;20187;-66
2021/01/29 07:23:10;;;;;;;;;;;154.00;2252.80;;;;;;5080694;28;19912;-66
2021/01/29 07:25:54;;;;;;;;;;;154.20;2252.80;;;;;;5079286;28;19905;-66
2021/01/29 07:28:26;;;;;;;;;;;154.20;2252.80;;;;;;5080350;28;19912;-66
2021/01/29 07:30:51;;;;;;;;;;;154.30;2252.80;;;;;;5080275;28;19912;-67
2021/01/29 07:33:29;;;;;;;;;;;154.00;2252.80;;;;;;5079874;28;20288;-65
2021/01/29 07:35:55;;;;;;;;;;;154.10;2252.80;;;;;;5079609;28;20230;-66
2021/01/29 07:38:38;;;;;;;;;;;154.00;2252.80;;;;;;5079829;28;19911;-67
2021/01/29 07:41:33;;;;;;;;;;;153.90;2252.80;;;;;;5079537;28;19908;-67
2021/01/29 07:44:23;;;;;;;;;;;154.00;2252.80;;;;;;5037032;28;19909;-66
2021/01/29 07:46:58;;;;;;;;;;;154.30;2252.80;;;;;;5037490;28;19991;-66
2021/01/29 07:49:31;;;;;;;;;;;154.50;2252.80;;;;;;5037429;28;19905;-67
2021/01/29 07:52:04;;;;;;;;;;;179.30;2252.80;;;;;;5037625;28;19905;-66
2021/01/29 07:54:36;;;;;;;;;;;154.50;2252.80;;;;;;5036939;28;19916;-66
2021/01/29 07:57:14;;;;;;;;;;;154.40;2252.80;;;;;;5037513;28;19905;-66
2021/01/29 07:59:53;;;;;;;;;;;179.20;2252.80;;;;;;5036861;28;19905;-66
2021/01/29 08:02:56;;;;;;;;;;;179.50;2252.80;;;;;;5037159;28;20224;-66
2021/01/29 08:05:27;;;;;;;;;;;179.80;2252.80;;;;;;4987293;28;19917;-66
2021/01/29 08:07:57;;;;;;;;;;;179.90;2252.80;;;;;;5037040;28;19964;-66
2021/01/29 08:10:25;;;;;;;;;;;179.90;2252.80;;;;;;5036982;28;19905;-67
2021/01/29 08:12:54;;;;;;;;;;;180.00;2252.80;;;;;;5037166;28;19905;-66
2021/01/29 08:15:22;;;;;;;;;;;179.70;2252.80;;;;;;5035887;28;19913;-66
2021/01/29 08:17:54;;;;;;;;;;;179.90;2252.80;;;;;;5035893;28;20226;-66
2021/01/29 08:20:19;;;;;;;;;;;204.90;2227.20;;;;;;5057255;28;19911;-66
2021/01/29 08:22:56;;;;;;;;;;;205.10;2176.00;;;;;;5078615;28;19908;-67
2021/01/29 08:25:24;;;;;;;;;;;205.40;2099.20;;;;;;5078585;28;20222;-66
2021/01/29 08:27:55;;;;;;;;;;;205.50;2073.60;;;;;;5078791;28;19904;-66
2021/01/29 08:30:39;;;;;;;;;;;205.50;2073.60;;;;;;5078482;28;20265;-66
2021/01/29 08:33:08;;;;;;;;;;;205.50;2073.60;;;;;;5078755;28;19931;-66
2021/01/29 08:35:42;;;;;;;;;;;205.50;2099.20;;;;;;5078308;28;19913;-64
2021/01/29 08:38:08;;;;;;;;;;;205.40;2099.20;;;;;;5078309;28;19995;-66
2021/01/29 08:40:45;;;;;;;;;;;205.60;2124.80;;;;;;5078580;28;19940;-66
2021/01/29 08:43:11;;;;;;;;;;;205.70;2124.80;;;;;;5078108;28;19931;-67
2021/01/29 08:45:59;;;;;;;;;;;205.70;2124.80;;;;;;5078783;28;20287;-66
2021/01/29 08:48:30;;;;;;;;;;;205.40;2124.80;;;;;;5083269;28;20297;-67
2021/01/29 08:51:14;;;;;;;;;;;205.70;2150.40;;;;;;5086123;28;19912;-67
2021/01/29 08:53:46;;;;;;;;;;;205.70;2099.20;;;;;;5095780;28;19919;-66
2021/01/29 08:56:15;;;;;;;;;;;230.50;2073.60;;;;;;5098013;28;19908;-66
2021/01/29 08:58:51;;;;;;;;;;;230.90;2048.00;;;;;;5097874;28;19908;-67
2021/01/29 09:01:23;;;;;;;;;;;231.10;2022.40;;;;;;5098534;28;19904;-67
2021/01/29 09:04:01;;;;;;;;;;;231.30;1996.80;;;;;;5097627;28;20002;-66
2021/01/29 09:06:28;;;;;;;;;;;231.30;1996.80;;;;;;5098418;28;19916;-67
2021/01/29 09:09:02;;;;;;;;;;;256.10;1971.20;;;;;;5098405;28;19995;-67
2021/01/29 09:11:31;;;;;;;;;;;256.30;1945.60;;;;;;5097526;28;19957;-66
2021/01/29 09:14:00;;;;;;;;;;;256.40;1945.60;;;;;;5098105;28;19912;-67
2021/01/29 09:16:25;;;;;;;;;;;256.70;1920.00;;;;;;5098240;28;19957;-67
2021/01/29 09:18:57;;;;;;;;;;;256.70;1894.40;;;;;;5098240;28;19904;-67
2021/01/29 09:21:28;;;;;;;;;;;281.70;1894.40;;;;;;5098143;28;20297;-66
2021/01/29 09:23:54;;;;;;;;;;;281.90;1843.20;;;;;;5098443;28;19904;-66
2021/01/29 09:26:38;;;;;;;;;;;281.80;1868.80;;;;;;5097816;28;19911;-67
2021/01/29 09:29:24;;;;;;;;;;;256.70;1894.40;;;;;;5098076;28;19972;-65
2021/01/29 09:31:59;;;;;;;;;;;256.50;1945.60;;;;;;5097579;28;19904;-64
2021/01/29 09:34:29;;;;;;;;;;;256.20;1894.40;;;;;;5098265;28;20397;-64
2021/01/29 09:37:02;;;;;;;;;;;256.60;1920.00;;;;;;5097697;28;20209;-64
2021/01/29 09:39:38;;;;;;;;;;;281.70;1868.80;;;;;;5097943;28;19911;-65
2021/01/29 09:42:09;;;;;;;;;;;281.90;1920.00;;;;;;5097389;28;19994;-63
2021/01/29 09:44:38;;;;;;;;;;;282.10;1817.60;;;;;;5098154;28;19970;-65
2021/01/29 09:47:05;;;;;;;;;;;282.30;1894.40;;;;;;5097814;28;19904;-64
2021/01/29 09:49:32;;;;;;;;;;;282.30;1817.60;;;;;;5097838;28;20037;-64
2021/01/29 09:52:13;;;;;;;;;;;282.20;1868.80;;;;;;5097780;28;19911;-64
2021/01/29 09:54:54;;;;;;;;;;;282.30;1868.80;;;;;;5097932;28;20053;-64
2021/01/29 09:57:21;;;;;;;;;;;282.20;1868.80;;;;;;5096438;28;20301;-64
2021/01/29 10:00:02;;;;;;;;;;;282.30;1843.20;;;;;;5097551;28;20041;-64
2021/01/29 10:02:46;;;;;;;;;;;282.20;1843.20;;;;;;5097330;28;19904;-64
2021/01/29 10:05:21;;;;;;;;;;;307.20;1843.20;;;;;;5097435;28;19923;-64
2021/01/29 10:07:54;;;;;;;;;;;307.50;1843.20;;;;;;5097105;28;20289;-64
2021/01/29 10:10:31;;;;;;;;;;;307.70;1817.60;;;;;;5097702;28;19904;-64
2021/01/29 10:13:03;;;;;;;;;;;281.90;1792.00;;;;;;5097332;28;19912;-64
2021/01/29 10:15:32;;;;;;;;;;;281.70;1817.60;;;;;;5097542;28;20018;-64
2021/01/29 10:18:15;;;;;;;;;;;256.70;1843.20;;;;;;5096030;28;19964;-64
2021/01/29 10:20:42;;;;;;;;;;;256.90;1868.80;;;;;;5096274;28;19911;-64
2021/01/29 10:23:14;;;;;;;;;;;256.80;1868.80;;;;;;5096907;28;19904;-64
2021/01/29 10:25:43;;;;;;;;;;;256.20;1945.60;;;;;;5097293;28;19904;-63
2021/01/29 10:28:14;;;;;;;;;;;231.30;1945.60;;;;;;5097394;28;19991;-64
2021/01/29 10:30:42;;;;;;;;;;;230.90;1945.60;;;;;;5097429;28;19904;-64
2021/01/29 10:33:11;;;;;;;;;;;230.70;2022.40;;;;;;5096840;28;19946;-64
2021/01/29 10:35:40;;;;;;;;;;;230.50;2099.20;;;;;;5097603;28;19916;-64
2021/01/29 10:38:11;;;;;;;;;;;230.60;2176.00;;;;;;5095218;28;20301;-64
2021/01/29 10:40:37;;;;;;;;;;;230.60;2150.40;;;;;;5095854;28;19904;-62
2021/01/29 10:43:02;;;;;;;;;;;230.90;2176.00;;;;;;5100449;28;19911;-63
2021/01/29 10:45:33;;;;;;;;;;;230.60;2099.20;;;;;;5099706;28;19987;-64
2021/01/29 10:48:11;;;;;;;;;;;230.90;2150.40;;;;;;5101218;28;19913;-64
2021/01/29 10:50:49;;;;;;;;;;;231.20;2150.40;;;;;;5100001;28;20373;-64
2021/01/29 10:53:16;;;;;;;;;;;256.00;2099.20;;;;;;5093620;28;20331;-65
2021/01/29 10:55:51;;;;;;;;;;;256.20;2048.00;;;;;;5088924;28;19915;-67
2021/01/29 10:58:28;;;;;;;;;;;256.20;1971.20;;;;;;5079778;28;20225;-66
2021/01/29 11:00:59;;;;;;;;;;;231.30;1971.20;;;;;;5079975;28;19999;-65
2021/01/29 11:03:43;;;;;;;;;;;231.10;1945.60;;;;;;5082257;28;19904;-66
2021/01/29 11:06:10;;;;;;;;;;;231.00;1996.80;;;;;;5100455;28;19941;-66
2021/01/29 11:08:40;;;;;;;;;;;256.00;1996.80;;;;;;5100542;28;19908;-64
2021/01/29 11:11:11;;;;;;;;;;;256.30;1996.80;;;;;;5100746;28;19966;-67
2021/01/29 11:13:51;;;;;;;;;;;256.80;1971.20;;;;;;5099710;28;20224;-65
2021/01/29 11:16:20;;;;;;;;;;;281.60;1920.00;;;;;;5100102;28;19904;-65
2021/01/29 11:18:54;;;;;;;;;;;256.90;1868.80;;;;;;5100240;28;19908;-66
2021/01/29 11:21:32;;;;;;;;;;;282.00;1894.40;;;;;;5100345;28;19908;-65
2021/01/29 11:24:16;;;;;;;;;;;307.20;1868.80;;;;;;5100183;28;19904;-66
2021/01/29 11:26:44;;;;;;;;;;;307.70;1843.20;;;;;;5099883;28;20209;-68
2021/01/29 11:29:18;;;;;;;;;;;332.80;1817.60;;;;;;5086929;28;20318;-66
2021/01/29 11:31:46;;;;;;;;;;;333.10;1766.40;;;;;;5088586;28;19910;-67
2021/01/29 11:34:19;;;;;;;;;;;307.80;1715.20;;;;;;5088931;28;19912;-68
2021/01/29 11:36:54;;;;;;;;;;;307.50;1740.80;;;;;;5088834;28;19967;-66
2021/01/29 11:39:28;;;;;;;;;;;307.60;1766.40;;;;;;5090578;28;20255;-65
2021/01/29 11:42:07;;;;;;;;;;;307.80;1689.60;;;;;;5081661;28;19905;-64
2021/01/29 11:44:36;;;;;;;;;;;307.50;1715.20;;;;;;5088896;28;19999;-65
2021/01/29 11:47:05;;;;;;;;;;;307.40;1740.80;;;;;;5090036;28;20234;-66
2021/01/29 11:49:36;;;;;;;;;;;307.50;1715.20;;;;;;5088615;28;19908;-66
2021/01/29 11:52:07;;;;;;;;;;;307.80;1715.20;;;;;;5087003;28;19904;-66
2021/01/29 11:54:53;;;;;;;;;;;307.80;1715.20;;;;;;5087077;28;19963;-66
2021/01/29 11:57:23;;;;;;;;;;;308.10;1689.60;;;;;;5088942;28;19905;-67
2021/01/29 11:59:49;;;;;;;;;;;332.90;1689.60;;;;;;5087607;28;19998;-64
2021/01/29 12:02:29;;;;;;;;;;;333.30;1664.00;;;;;;5086647;28;20004;-66
2021/01/29 12:05:12;;;;;;;;;;;333.10;1664.00;;;;;;5086187;28;20223;-67
2021/01/29 12:07:59;;;;;;;;;;;333.60;1612.80;;;;;;5086644;28;19908;-67
2021/01/29 12:10:40;;;;;;;;;;;358.70;1612.80;;;;;;5086160;28;19947;-66
2021/01/29 12:13:09;;;;;;;;;;;358.40;1638.40;;;;;;5088977;28;19990;-67
2021/01/29 12:15:44;;;;;;;;;;;358.60;1587.20;;;;;;5088067;28;19916;-67
2021/01/29 12:18:11;;;;;;;;;;;358.50;1561.60;;;;;;5086989;28;19951;-67
2021/01/29 12:20:39;;;;;;;;;;;358.40;1561.60;;;;;;5087180;28;20003;-66
2021/01/29 12:23:08;;;;;;;;;;;333.70;1587.20;;;;;;5088469;28;20299;-66
2021/01/29 12:25:52;;;;;;;;;;;333.50;1587.20;;;;;;5088045;28;19911;-66
2021/01/29 12:28:33;;;;;;;;;;;358.60;1587.20;;;;;;5088470;28;19919;-66
2021/01/29 12:31:14;;;;;;;;;;;358.50;1536.00;;;;;;5088133;28;20438;-66
2021/01/29 12:33:54;;;;;;;;;;;358.70;1536.00;;;;;;5091438;28;19908;-67
2021/01/29 12:36:22;;;;;;;;;;;384.20;1510.40;;;;;;5086600;28;19912;-66
2021/01/29 12:38:57;;;;;;;;;;;384.70;1510.40;;;;;;5086835;28;19904;-65
2021/01/29 12:41:32;;;;;;;;;;;384.30;1484.80;;;;;;5097195;28;19915;-66
2021/01/29 12:43:57;;;;;;;;;;;384.50;1459.20;;;;;;5098974;28;19904;-66
2021/01/29 12:46:27;;;;;;;;;;;384.80;1484.80;;;;;;5098579;28;19915;-66
2021/01/29 12:48:56;;;;;;;;;;;384.50;1459.20;;;;;;5098958;28;20297;-66
2021/01/29 12:51:24;;;;;;;;;;;409.70;1484.80;;;;;;5098239;28;19961;-65
2021/01/29 12:53:59;;;;;;;;;;;409.60;1459.20;;;;;;5098445;28;19966;-66
2021/01/29 12:56:37;;;;;;;;;;;384.90;1433.60;;;;;;5098633;28;19912;-66
2021/01/29 12:59:03;;;;;;;;;;;410.30;1408.00;;;;;;5098140;28;19911;-67
2021/01/29 13:01:35;;;;;;;;;;;410.10;1408.00;;;;;;5098951;28;19904;-66
2021/01/29 13:04:06;;;;;;;;;;;384.50;1433.60;;;;;;5098380;28;20251;-66
2021/01/29 13:06:32;;;;;;;;;;;384.30;1459.20;;;;;;5097669;28;20053;-66
2021/01/29 13:09:09;;;;;;;;;;;409.90;1459.20;;;;;;5098030;28;20006;-66
2021/01/29 13:11:47;;;;;;;;;;;410.10;1433.60;;;;;;5098586;28;19973;-66
2021/01/29 13:14:16;;;;;;;;;;;435.20;1408.00;;;;;;5097751;28;19961;-67
2021/01/29 13:17:02;;;;;;;;;;;409.70;1433.60;;;;;;5098682;28;19915;-68
2021/01/29 13:19:29;;;;;;;;;;;410.00;1433.60;;;;;;5098013;28;20277;-67
2021/01/29 13:21:57;;;;;;;;;;;435.30;1408.00;;;;;;5097769;28;20225;-67
2021/01/29 13:24:33;;;;;;;;;;;435.50;1382.40;;;;;;5098419;28;19907;-66
2021/01/29 13:27:07;;;;;;;;;;;410.40;1382.40;;;;;;5097368;28;19904;-66
2021/01/29 13:29:33;;;;;;;;;;;410.20;1433.60;;;;;;5098504;28;19904;-67
2021/01/29 13:32:09;;;;;;;;;;;409.70;1459.20;;;;;;5097835;28;19904;-66
2021/01/29 13:34:39;;;;;;;;;;;409.70;1408.00;;;;;;5098142;28;19908;-66
2021/01/29 13:37:07;;;;;;;;;;;461.10;1356.80;;;;;;5095317;28;19908;-65
2021/01/29 13:39:37;;;;;;;;;;;486.70;1254.40;;;;;;5097352;28;19911;-67
2021/01/29 13:42:21;;;;;;;;;;;461.60;1280.00;;;;;;5097631;28;19908;-67
2021/01/29 13:44:46;;;;;;;;;;;461.00;1305.60;;;;;;5098397;28;20345;-66
2021/01/29 13:47:21;;;;;;;;;;;436.00;1305.60;;;;;;5097709;28;19996;-66
2021/01/29 13:49:46;;;;;;;;;;;460.90;1331.20;;;;;;5097863;28;20336;-66
2021/01/29 13:52:32;;;;;;;;;;;486.90;1228.80;;;;;;5097868;28;19908;-66
2021/01/29 13:55:16;;;;;;;;;;;486.50;1254.40;;;;;;5095593;28;19908;-66
2021/01/29 13:57:45;;;;;;;;;;;486.50;1228.80;;;;;;5077312;28;19952;-65
2021/01/29 14:00:13;;;;;;;;;;;461.30;1305.60;;;;;;5077723;28;19953;-65
2021/01/29 14:02:38;;;;;;;;;;;435.60;1331.20;;;;;;5077681;28;19947;-65
2021/01/29 14:05:04;;;;;;;;;;;410.10;1382.40;;;;;;5077412;28;19916;-65
2021/01/29 14:07:30;;;;;;;;;;;384.90;1408.00;;;;;;5077533;28;19909;-65
2021/01/29 14:09:55;;;;;;;;;;;384.40;1459.20;;;;;;5091761;28;19915;-65
2021/01/29 14:12:29;;;;;;;;;;;359.30;1484.80;;;;;;5097006;28;19904;-65
2021/01/29 14:15:02;;;;;;;;;;;358.50;1561.60;;;;;;5097708;28;20028;-63
2021/01/29 14:17:27;;;;;;;;;;;333.70;1561.60;;;;;;5100558;28;19922;-65